Hlavní strana
METAR-TAF:

METAR-TAF

Letiště :

Kuressaare, Estonsko

zeměpisná šířka: 58-13-48N, zeměpisná délka: 022-30-34E, výška: 4 m

Aktuální stav počasí

Zpráva byla vytvořena před 37 minutami, v 17:50 UTC
Jižní vítr 7 kt
Teplota 5°C
Vlhkost vzduchu 75%
Tlak 1029 hPa
Viditelnost 10 km a více

METAR: EEKE 061750Z AUTO 18007KT 9999NDV NCD 05/01 Q1029

Čas: 21:27 (18:27 UTC)


TAF: chybějící

Stav a předpovědi počasí z více než 4 000 letišť (zprávy METAR a TAF).

Červené a žluté tečky na mapě představují dostupné meteorologické stanice.

Když kurzor umístíte na tečku, zobrazí se název stanice.

Pak kliknutím zobrazíte stav a předpověď počasí.

Chcete-li změnit mapu, kliknutím na zelené tlačítko se znaménkem +mapu přiblížíte, kliknutím na zelené tlačítko se znaménkem – mapu oddálíte a kliknutím na zelené šipky přejdete na sousední mapy.


METAR-TAF: